Time;durP1;ratioP1;P1;durP2;ratioP2;P2;SDS_P1;SDS_P2;PMS_P1;PMS_P2;Temp;Humidity;BMP_temperature;BMP_pressure;BME280_temperature;BME280_humidity;BME280_pressure;Samples;Min_cycle;Max_cycle;Signal;HPM_P1;HPM_P2
2021/07/05 00:02:14;;;;;;;;;;;;;;;;;;5044736;28;19924;-65
2021/07/05 00:04:41;;;;;;;;;;;;;;;;;;5047064;28;20685;-64
2021/07/05 00:07:08;;;;;;;;;;;;;;;;;;5046203;28;20316;-64
2021/07/05 00:09:35;;;;;;;;;;;;;;;;;;5035566;28;21220;-64
2021/07/05 00:12:02;;;;;;;;;;;;;;;;;;5045672;28;19932;-64
2021/07/05 00:14:29;;;;;;;;;;;;;;;;;;5045010;28;19925;-65
2021/07/05 00:16:56;;;;;;;;;;;;;;;;;;5050494;28;20015;-64
2021/07/05 00:19:23;;;;;;;;;;;;;;;;;;5045577;28;19929;-63
2021/07/05 00:21:50;;;;;;;;;;;;;;;;;;5037433;28;20367;-64
2021/07/05 00:24:16;;;;;;;;;;;;;;;;;;5048399;28;19925;-64
2021/07/05 00:26:43;;;;;;;;;;;;;;;;;;5046457;28;19929;-64
2021/07/05 00:29:10;;;;;;;;;;;;;;;;;;5051271;28;19931;-65
2021/07/05 00:31:37;;;;;;;;;;;;;;;;;;5050400;28;19939;-65
2021/07/05 00:34:04;;;;;;;;;;;;;;;;;;5049281;28;19925;-63
2021/07/05 00:36:31;;;;;;;;;;;;;;;;;;5045704;28;19925;-64
2021/07/05 00:38:58;;;;;;;;;;;;;;;;;;5046860;28;19929;-64
2021/07/05 00:41:25;;;;;;;;;;;;;;;;;;5048408;28;19936;-65
2021/07/05 00:43:52;;;;;;;;;;;;;;;;;;5050035;28;19999;-64
2021/07/05 00:46:19;;;;;;;;;;;;;;;;;;5050173;28;19970;-63
2021/07/05 00:48:46;;;;;;;;;;;;;;;;;;5046454;28;19928;-63
2021/07/05 00:51:13;;;;;;;;;;;;;;;;;;5048707;28;19931;-63
2021/07/05 00:53:40;;;;;;;;;;;;;;;;;;5047242;28;19928;-63
2021/07/05 00:56:07;;;;;;;;;;;;;;;;;;5046836;28;19924;-63
2021/07/05 00:58:34;;;;;;;;;;;;;;;;;;5048706;28;20424;-63
2021/07/05 01:01:01;;;;;;;;;;;;;;;;;;5047976;28;19925;-63
2021/07/05 01:03:27;;;;;;;;;;;;;;;;;;5049346;28;19935;-63
2021/07/05 01:05:54;;;;;;;;;;;;;;;;;;5044785;28;19932;-63
2021/07/05 01:08:21;;;;;;;;;;;;;;;;;;5047581;28;20421;-63
2021/07/05 01:10:48;;;;;;;;;;;;;;;;;;5042457;28;19929;-63
2021/07/05 01:13:15;;;;;;;;;;;;;;;;;;5051091;28;19933;-63
2021/07/05 01:15:42;;;;;;;;;;;;;;;;;;5044770;28;19925;-63
2021/07/05 01:18:09;;;;;;;;;;;;;;;;;;5045390;28;20282;-64
2021/07/05 01:20:36;;;;;;;;;;;;;;;;;;5043050;28;19925;-63
2021/07/05 01:23:03;;;;;;;;;;;;;;;;;;5044556;28;20345;-63
2021/07/05 01:25:30;;;;;;;;;;;;;;;;;;5045964;28;19924;-63
2021/07/05 01:27:57;;;;;;;;;;;;;;;;;;5040506;28;19977;-63
2021/07/05 01:30:24;;;;;;;;;;;;;;;;;;5047529;28;19967;-64
2021/07/05 01:32:51;;;;;;;;;;;;;;;;;;5046202;28;20385;-64
2021/07/05 01:35:18;;;;;;;;;;;;;;;;;;5047679;28;19925;-64
2021/07/05 01:37:44;;;;;;;;;;;;;;;;;;5048597;28;19931;-64
2021/07/05 01:40:14;;;;;;;;;;;;;;;;;;5045614;28;20300;-63
2021/07/05 01:42:41;;;;;;;;;;;;;;;;;;5036970;28;20409;-64
2021/07/05 01:45:08;;;;;;;;;;;;;;;;;;5045962;28;20027;-63
2021/07/05 01:47:35;;;;;;;;;;;;;;;;;;5044510;28;19931;-64
2021/07/05 01:50:02;;;;;;;;;;;;;;;;;;5046489;28;19925;-63
2021/07/05 01:52:29;;;;;;;;;;;;;;;;;;5050263;28;19931;-64
2021/07/05 01:54:56;;;;;;;;;;;;;;;;;;5047698;28;20444;-65
2021/07/05 01:57:26;;;;;;;;;;;;;;;;;;5048865;28;19929;-64
2021/07/05 01:59:53;;;;;;;;;;;;;;;;;;5048810;28;19937;-64
2021/07/05 02:02:20;;;;;;;;;;;;;;;;;;5048789;28;19933;-64
2021/07/05 02:04:47;;;;;;;;;;;;;;;;;;5047087;28;19931;-64
2021/07/05 02:07:14;;;;;;;;;;;;;;;;;;5047576;28;20449;-64
2021/07/05 02:09:41;;;;;;;;;;;;;;;;;;5051120;28;19925;-64
2021/07/05 02:12:08;;;;;;;;;;;;;;;;;;5052034;28;19928;-64
2021/07/05 02:14:35;;;;;;;;;;;;;;;;;;5050233;28;19931;-64
2021/07/05 02:17:02;;;;;;;;;;;;;;;;;;5044922;28;19931;-65
2021/07/05 02:19:29;;;;;;;;;;;;;;;;;;5039464;28;20016;-64
2021/07/05 02:21:56;;;;;;;;;;;;;;;;;;5046109;28;19931;-64
2021/07/05 02:24:22;;;;;;;;;;;;;;;;;;5050320;28;19940;-64
2021/07/05 02:26:49;;;;;;;;;;;;;;;;;;5044324;28;19925;-64
2021/07/05 02:29:16;;;;;;;;;;;;;;;;;;5044722;28;19925;-64
2021/07/05 02:31:43;;;;;;;;;;;;;;;;;;5045584;28;19931;-64
2021/07/05 02:34:10;;;;;;;;;;;;;;;;;;5049545;28;20397;-67
2021/07/05 02:36:37;;;;;;;;;;;;;;;;;;5048042;28;19931;-63
2021/07/05 02:39:04;;;;;;;;;;;;;;;;;;5044524;28;19925;-63
2021/07/05 02:41:31;;;;;;;;;;;;;;;;;;5047802;28;19932;-63
2021/07/05 02:43:58;;;;;;;;;;;;;;;;;;5035702;28;20334;-63
2021/07/05 02:46:25;;;;;;;;;;;;;;;;;;5044893;28;19925;-63
2021/07/05 02:48:52;;;;;;;;;;;;;;;;;;5045211;28;19929;-63
2021/07/05 02:51:19;;;;;;;;;;;;;;;;;;5045909;28;19929;-63
2021/07/05 02:53:46;;;;;;;;;;;;;;;;;;5050118;28;19947;-64
2021/07/05 02:56:12;;;;;;;;;;;;;;;;;;5048197;28;20382;-64
2021/07/05 02:58:39;;;;;;;;;;;;;;;;;;5047986;28;19925;-64
2021/07/05 03:01:07;;;;;;;;;;;;;;;;;;5041577;28;19933;-64
2021/07/05 03:03:34;;;;;;;;;;;;;;;;;;5039883;28;20435;-64
2021/07/05 03:06:01;;;;;;;;;;;;;;;;;;5036561;28;19926;-64
2021/07/05 03:08:28;;;;;;;;;;;;;;;;;;5050959;28;19936;-63
2021/07/05 03:10:55;;;;;;;;;;;;;;;;;;5052634;28;19925;-65
2021/07/05 03:13:22;;;;;;;;;;;;;;;;;;5049848;28;19980;-64
2021/07/05 03:15:50;;;;;;;;;;;;;;;;;;5050238;28;19928;-64
2021/07/05 03:18:17;;;;;;;;;;;;;;;;;;5047433;28;20440;-64
2021/07/05 03:20:44;;;;;;;;;;;;;;;;;;5049527;28;19929;-64
2021/07/05 03:23:11;;;;;;;;;;;;;;;;;;5049207;28;19929;-64
2021/07/05 03:25:38;;;;;;;;;;;;;;;;;;5047974;28;19991;-64
2021/07/05 03:28:05;;;;;;;;;;;;;;;;;;5045491;28;19931;-63
2021/07/05 03:30:33;;;;;;;;;;;;;;;;;;5047473;28;19924;-64
2021/07/05 03:33:00;;;;;;;;;;;;;;;;;;5049299;28;19931;-64
2021/07/05 03:35:26;;;;;;;;;;;;;;;;;;5062343;22;19929;-66
2021/07/05 03:37:53;;;;;;;;;;;;;;;;;;5070822;28;19939;-65
2021/07/05 03:40:20;;;;;;;;;;;;;;;;;;5072183;28;19925;-64
2021/07/05 03:42:47;;;;;;;;;;;;;;;;;;5072041;28;20392;-66
2021/07/05 03:45:14;;;;;;;;;;;;;;;;;;5071107;28;20304;-66
2021/07/05 03:47:41;;;;;;;;;;;;;;;;;;5070794;28;19924;-66
2021/07/05 03:50:08;;;;;;;;;;;;;;;;;;5066768;28;19928;-64
2021/07/05 03:52:35;;;;;;;;;;;;;;;;;;5064615;28;19924;-65
2021/07/05 03:55:02;;;;;;;;;;;;;;;;;;5072489;28;19925;-65
2021/07/05 03:57:29;;;;;;;;;;;;;;;;;;5069823;28;19924;-63
2021/07/05 03:59:56;;;;;;;;;;;;;;;;;;5066263;28;19925;-66
2021/07/05 04:02:23;;;;;;;;;;;;;;;;;;5067351;28;20311;-63
2021/07/05 04:04:50;;;;;;;;;;;;;;;;;;5065759;28;19924;-64
2021/07/05 04:07:18;;;;;;;;;;;;;;;;;;5070444;28;19955;-65
2021/07/05 04:09:45;;;;;;;;;;;;;;;;;;5064408;28;19974;-66
2021/07/05 04:12:12;;;;;;;;;;;;;;;;;;5068179;28;20019;-66
2021/07/05 04:14:39;;;;;;;;;;;;;;;;;;5065551;28;20102;-64
2021/07/05 04:17:06;;;;;;;;;;;;;;;;;;5067066;28;19929;-65
2021/07/05 04:19:33;;;;;;;;;;;;;;;;;;5066500;28;20292;-67
2021/07/05 04:22:00;;;;;;;;;;;;;;;;;;5061719;28;19925;-67
2021/07/05 04:24:27;;;;;;;;;;;;;;;;;;5068054;28;19925;-67
2021/07/05 04:26:54;;;;;;;;;;;;;;;;;;5069650;28;19928;-66
2021/07/05 04:29:21;;;;;;;;;;;;;;;;;;5067756;28;19987;-67
2021/07/05 04:31:48;;;;;;;;;;;;;;;;;;5066287;28;19925;-64
2021/07/05 04:34:15;;;;;;;;;;;;;;;;;;5071187;28;19932;-67
2021/07/05 04:36:42;;;;;;;;;;;;;;;;;;5065065;28;19932;-66
2021/07/05 04:39:09;;;;;;;;;;;;;;;;;;5063832;28;19932;-65
2021/07/05 04:41:36;;;;;;;;;;;;;;;;;;5070772;28;19925;-66
2021/07/05 04:44:03;;;;;;;;;;;;;;;;;;5064570;28;19929;-65
2021/07/05 04:46:30;;;;;;;;;;;;;;;;;;5070266;28;20468;-65
2021/07/05 04:48:57;;;;;;;;;;;;;;;;;;5070261;28;19967;-66
2021/07/05 04:51:24;;;;;;;;;;;;;;;;;;5069467;28;19935;-66
2021/07/05 04:53:51;;;;;;;;;;;;;;;;;;5064206;28;19925;-66
2021/07/05 04:56:18;;;;;;;;;;;;;;;;;;5064301;28;20013;-66
2021/07/05 04:58:45;;;;;;;;;;;;;;;;;;5065520;28;19925;-67
2021/07/05 05:01:12;;;;;;;;;;;;;;;;;;5064800;28;20371;-66
2021/07/05 05:03:39;;;;;;;;;;;;;;;;;;5069361;28;19931;-66
2021/07/05 05:06:06;;;;;;;;;;;;;;;;;;5066450;28;19933;-66
2021/07/05 05:08:33;;;;;;;;;;;;;;;;;;5062403;28;19931;-66
2021/07/05 05:11:00;;;;;;;;;;;;;;;;;;5065637;28;19931;-66
2021/07/05 05:13:28;;;;;;;;;;;;;;;;;;5065687;28;19925;-64
2021/07/05 05:15:55;;;;;;;;;;;;;;;;;;5067548;28;19928;-65
2021/07/05 05:18:22;;;;;;;;;;;;;;;;;;5060331;28;19928;-66
2021/07/05 05:20:49;;;;;;;;;;;;;;;;;;5063336;28;19924;-67
2021/07/05 05:23:16;;;;;;;;;;;;;;;;;;5069396;28;19925;-66
2021/07/05 05:25:43;;;;;;;;;;;;;;;;;;5069594;28;19924;-66
2021/07/05 05:28:10;;;;;;;;;;;;;;;;;;5068949;28;19928;-66
2021/07/05 05:30:37;;;;;;;;;;;;;;;;;;5061937;28;19924;-66
2021/07/05 05:33:07;;;;;;;;;;;;;;;;;;5065156;28;19939;-65
2021/07/05 05:35:34;;;;;;;;;;;;;;;;;;5064431;28;19924;-66
2021/07/05 05:38:03;;;;;;;;;;;;;;;;;;5065845;28;21252;-67
2021/07/05 05:40:30;;;;;;;;;;;;;;;;;;5063051;28;20403;-66
2021/07/05 05:42:57;;;;;;;;;;;;;;;;;;5062883;28;19947;-67
2021/07/05 05:45:23;;;;;;;;;;;;;;;;;;5066770;28;20386;-66
2021/07/05 05:47:50;;;;;;;;;;;;;;;;;;5065114;28;19924;-66
2021/07/05 05:50:17;;;;;;;;;;;;;;;;;;5066296;28;19931;-63
2021/07/05 05:52:44;;;;;;;;;;;;;;;;;;5064280;28;19932;-64
2021/07/05 05:55:11;;;;;;;;;;;;;;;;;;5062330;28;20304;-66
2021/07/05 05:57:39;;;;;;;;;;;;;;;;;;5066152;28;19933;-65
2021/07/05 06:00:06;;;;;;;;;;;;;;;;;;5065989;28;19970;-67
2021/07/05 06:02:33;;;;;;;;;;;;;;;;;;5063502;28;20090;-67
2021/07/05 06:05:00;;;;;;;;;;;;;;;;;;5054833;28;19933;-65
2021/07/05 06:07:27;;;;;;;;;;;;;;;;;;5061456;28;19928;-66
2021/07/05 06:09:54;;;;;;;;;;;;;;;;;;5066034;28;19932;-66
2021/07/05 06:12:21;;;;;;;;;;;;;;;;;;5074091;28;19924;-66
2021/07/05 06:14:48;;;;;;;;;;;;;;;;;;5059374;28;19947;-65
2021/07/05 06:17:15;;;;;;;;;;;;;;;;;;5062372;28;19924;-66
2021/07/05 06:19:42;;;;;;;;;;;;;;;;;;5064245;28;19933;-66
2021/07/05 06:22:14;;;;;;;;;;;;;;;;;;5065449;28;19971;-65
2021/07/05 06:24:41;;;;;;;;;;;;;;;;;;5064302;28;19982;-66
2021/07/05 06:27:08;;;;;;;;;;;;;;;;;;5064439;28;20019;-66
2021/07/05 06:29:35;;;;;;;;;;;;;;;;;;5067732;28;20303;-66
2021/07/05 06:32:02;;;;;;;;;;;;;;;;;;5064515;28;19931;-64
2021/07/05 06:34:29;;;;;;;;;;;;;;;;;;5065439;28;20460;-67
2021/07/05 06:36:56;;;;;;;;;;;;;;;;;;5065008;28;20023;-66
2021/07/05 06:39:23;;;;;;;;;;;;;;;;;;5068356;28;19925;-66
2021/07/05 06:41:50;;;;;;;;;;;;;;;;;;5065941;28;20273;-65
2021/07/05 06:44:18;;;;;;;;;;;;;;;;;;5069197;28;19924;-65
2021/07/05 06:46:45;;;;;;;;;;;;;;;;;;5070194;28;19924;-65
2021/07/05 06:49:16;;;;;;;;;;;;;;;;;;5076161;28;19931;-65
2021/07/05 06:51:43;;;;;;;;;;;;;;;;;;5073610;28;19928;-64
2021/07/05 06:54:10;;;;;;;;;;;;;;;;;;5082980;28;19924;-67
2021/07/05 06:56:37;;;;;;;;;;;;;;;;;;5066324;28;19967;-64
2021/07/05 06:59:04;;;;;;;;;;;;;;;;;;5064752;28;19928;-67
2021/07/05 07:01:31;;;;;;;;;;;;;;;;;;5070193;28;19931;-64
2021/07/05 07:03:58;;;;;;;;;;;;;;;;;;5076049;28;19942;-64
2021/07/05 07:06:25;;;;;;;;;;;;;;;;;;5067182;28;19963;-64
2021/07/05 07:08:52;;;;;;;;;;;;;;;;;;5071954;28;20023;-67
2021/07/05 07:11:19;;;;;;;;;;;;;;;;;;5069430;28;19932;-62
2021/07/05 07:13:46;;;;;;;;;;;;;;;;;;5073501;28;19924;-67
2021/07/05 07:16:15;;;;;;;;;;;;;;;;;;5066220;28;19924;-65
2021/07/05 07:21:29;;;;;;;;;;;;;;;;;;5056539;28;19920;-64
2021/07/05 07:23:56;;;;;;;;;;;;;;;;;;5075857;28;20009;-63
2021/07/05 07:26:23;;;;;;;;;;;;;;;;;;5066943;28;19931;-64
2021/07/05 07:28:52;;;;;;;;;;;;;;;;;;5072489;28;20402;-64
2021/07/05 07:31:19;;;;;;;;;;;;;;;;;;5074350;28;19931;-64
2021/07/05 07:33:46;;;;;;;;;;;;;;;;;;5067951;28;20011;-63
2021/07/05 07:36:13;;;;;;;;;;;;;;;;;;5066133;28;19978;-64
2021/07/05 07:38:43;;;;;;;;;;;;;;;;;;5073443;28;19947;-65
2021/07/05 07:41:10;;;;;;;;;;;;;;;;;;5065064;28;19974;-65
2021/07/05 07:43:37;;;;;;;;;;;;;;;;;;5073305;28;19931;-64
2021/07/05 07:46:04;;;;;;;;;;;;;;;;;;5071437;28;20391;-64
2021/07/05 07:48:31;;;;;;;;;;;;;;;;;;5066848;28;19924;-65
2021/07/05 07:50:58;;;;;;;;;;;;;;;;;;5072879;28;19924;-65
2021/07/05 07:53:25;;;;;;;;;;;;;;;;;;5073638;28;19932;-66
2021/07/05 07:55:52;;;;;;;;;;;;;;;;;;5063704;28;20015;-66
2021/07/05 07:58:19;;;;;;;;;;;;;;;;;;5065882;28;20373;-64
2021/07/05 08:00:46;;;;;;;;;;;;;;;;;;5069225;28;19924;-64
2021/07/05 08:03:13;;;;;;;;;;;;;;;;;;5069432;28;19925;-64
2021/07/05 08:05:40;;;;;;;;;;;;;;;;;;5058390;28;19972;-65
2021/07/05 08:08:08;;;;;;;;;;;;;;;;;;5068486;28;19932;-64
2021/07/05 08:10:35;;;;;;;;;;;;;;;;;;5068594;28;19952;-68
2021/07/05 08:13:03;;;;;;;;;;;;;;;;;;5069748;28;19936;-65
2021/07/05 08:15:30;;;;;;;;;;;;;;;;;;5065264;28;19946;-65
2021/07/05 08:17:57;;;;;;;;;;;;;;;;;;5070194;28;19924;-65
2021/07/05 08:20:24;;;;;;;;;;;;;;;;;;5070121;28;19932;-65
2021/07/05 08:22:51;;;;;;;;;;;;;;;;;;5080394;28;19932;-64
2021/07/05 08:25:18;;;;;;;;;;;;;;;;;;5065838;28;20031;-63
2021/07/05 08:27:45;;;;;;;;;;;;;;;;;;5071048;28;20432;-66
2021/07/05 08:30:12;;;;;;;;;;;;;;;;;;5071277;28;19925;-66
2021/07/05 08:32:39;;;;;;;;;;;;;;;;;;5068949;28;20011;-64
2021/07/05 08:35:06;;;;;;;;;;;;;;;;;;5075460;28;20309;-64
2021/07/05 08:37:33;;;;;;;;;;;;;;;;;;5066690;28;19935;-66
2021/07/05 08:40:00;;;;;;;;;;;;;;;;;;5068622;28;19932;-64
2021/07/05 08:42:27;;;;;;;;;;;;;;;;;;5066769;28;19928;-64
2021/07/05 08:44:54;;;;;;;;;;;;;;;;;;5063808;28;19925;-64
2021/07/05 08:47:21;;;;;;;;;;;;;;;;;;5065706;28;20300;-64
2021/07/05 08:49:48;;;;;;;;;;;;;;;;;;5069410;28;19924;-64
2021/07/05 08:52:15;;;;;;;;;;;;;;;;;;5069554;28;20388;-63
2021/07/05 08:54:42;;;;;;;;;;;;;;;;;;5067327;28;19937;-64
2021/07/05 08:57:26;;;;;;;;;;;;;;;;;;5063971;28;19930;-64
2021/07/05 08:59:53;;;;;;;;;;;;;;;;;;5072568;28;20035;-65
2021/07/05 09:02:20;;;;;;;;;;;;;;;;;;5068141;28;20415;-64
2021/07/05 09:04:47;;;;;;;;;;;;;;;;;;5066100;28;19928;-64
2021/07/05 09:07:14;;;;;;;;;;;;;;;;;;5070569;28;19924;-65
2021/07/05 09:09:41;;;;;;;;;;;;;;;;;;5068663;28;19925;-64
2021/07/05 09:12:08;;;;;;;;;;;;;;;;;;5068578;28;19924;-66
2021/07/05 09:14:35;;;;;;;;;;;;;;;;;;5075494;28;19924;-64
2021/07/05 09:17:02;;;;;;;;;;;;;;;;;;5065918;28;20340;-66
2021/07/05 09:19:29;;;;;;;;;;;;;;;;;;5072831;28;19924;-62
2021/07/05 09:21:56;;;;;;;;;;;;;;;;;;5060181;28;19960;-65
2021/07/05 09:24:23;;;;;;;;;;;;;;;;;;5066862;28;19925;-67
2021/07/05 09:26:53;;;;;;;;;;;;;;;;;;5066889;28;19947;-63
2021/07/05 09:29:20;;;;;;;;;;;;;;;;;;5074414;28;19932;-64
2021/07/05 09:31:47;;;;;;;;;;;;;;;;;;5066515;28;19956;-65
2021/07/05 09:34:15;;;;;;;;;;;;;;;;;;5066185;28;19924;-67
2021/07/05 09:36:42;;;;;;;;;;;;;;;;;;5093006;22;19927;-66
2021/07/05 09:39:09;;;;;;;;;;;;;;;;;;5090809;28;19923;-66
2021/07/05 09:41:36;;;;;;;;;;;;;;;;;;5085948;28;19924;-67
2021/07/05 09:44:02;;;;;;;;;;;;;;;;;;5080616;28;19996;-65
2021/07/05 09:46:29;;;;;;;;;;;;;;;;;;5096969;28;19939;-65
2021/07/05 09:48:56;;;;;;;;;;;;;;;;;;5107353;28;19943;-66
2021/07/05 09:51:23;;;;;;;;;;;;;;;;;;5099716;28;19924;-65
2021/07/05 09:53:50;;;;;;;;;;;;;;;;;;5104988;28;19923;-65
2021/07/05 09:56:17;;;;;;;;;;;;;;;;;;5097616;28;20204;-66
2021/07/05 09:58:44;;;;;;;;;;;;;;;;;;5105586;28;19930;-66
2021/07/05 10:01:11;;;;;;;;;;;;;;;;;;5099194;28;20061;-67
2021/07/05 10:03:39;;;;;;;;;;;;;;;;;;5108495;28;19930;-66
2021/07/05 10:06:06;;;;;;;;;;;;;;;;;;5103298;28;19963;-66
2021/07/05 10:08:33;;;;;;;;;;;;;;;;;;5105740;28;19930;-67
2021/07/05 10:11:00;;;;;;;;;;;;;;;;;;5105266;28;19924;-66
2021/07/05 10:13:27;;;;;;;;;;;;;;;;;;5104704;28;19943;-67
2021/07/05 10:15:54;;;;;;;;;;;;;;;;;;5103636;28;19924;-66
2021/07/05 10:18:21;;;;;;;;;;;;;;;;;;5103934;28;19931;-66
2021/07/05 10:20:49;;;;;;;;;;;;;;;;;;5107538;28;19943;-67
2021/07/05 10:23:16;;;;;;;;;;;;;;;;;;5111449;28;20031;-67
2021/07/05 10:25:43;;;;;;;;;;;;;;;;;;5104354;28;19928;-67
2021/07/05 10:28:10;;;;;;;;;;;;;;;;;;5105915;28;20019;-65
2021/07/05 10:30:37;;;;;;;;;;;;;;;;;;5107042;27;19932;-68
2021/07/05 10:33:04;;;;;;;;;;;;;;;;;;5109072;28;19923;-66
2021/07/05 10:35:31;;;;;;;;;;;;;;;;;;5108249;28;19930;-65
2021/07/05 10:37:58;;;;;;;;;;;;;;;;;;5110673;28;20373;-66
2021/07/05 10:40:25;;;;;;;;;;;;;;;;;;5106377;28;19930;-66
2021/07/05 10:42:52;;;;;;;;;;;;;;;;;;5107715;28;20030;-67
2021/07/05 10:45:19;;;;;;;;;;;;;;;;;;5105893;28;20012;-66
2021/07/05 10:47:45;;;;;;;;;;;;;;;;;;5110878;28;19927;-66
2021/07/05 10:50:13;;;;;;;;;;;;;;;;;;5111487;28;20035;-66
2021/07/05 10:52:39;;;;;;;;;;;;;;;;;;5111224;28;19932;-66
2021/07/05 10:55:07;;;;;;;;;;;;;;;;;;5106957;28;19931;-67
2021/07/05 10:57:34;;;;;;;;;;;;;;;;;;5106233;28;19955;-67
2021/07/05 11:00:01;;;;;;;;;;;;;;;;;;5109621;28;20367;-67
2021/07/05 11:02:28;;;;;;;;;;;;;;;;;;5105176;28;19932;-66
2021/07/05 11:04:55;;;;;;;;;;;;;;;;;;5108186;28;20113;-66
2021/07/05 11:07:24;;;;;;;;;;;;;;;;;;5109909;28;19924;-66
2021/07/05 11:09:51;;;;;;;;;;;;;;;;;;5109188;28;19924;-66
2021/07/05 11:12:18;;;;;;;;;;;;;;;;;;5104647;28;19938;-66
2021/07/05 11:14:45;;;;;;;;;;;;;;;;;;5108124;28;19924;-67
2021/07/05 11:17:12;;;;;;;;;;;;;;;;;;5104147;28;19945;-65
2021/07/05 11:19:40;;;;;;;;;;;;;;;;;;5106618;28;20019;-65
2021/07/05 11:22:07;;;;;;;;;;;;;;;;;;5111225;27;19977;-67
2021/07/05 11:24:34;;;;;;;;;;;;;;;;;;5103696;28;19927;-66
2021/07/05 11:27:01;;;;;;;;;;;;;;;;;;5105513;28;19924;-67
2021/07/05 11:29:29;;;;;;;;;;;;;;;;;;5108264;28;19924;-68
2021/07/05 11:31:56;;;;;;;;;;;;;;;;;;5104149;28;20018;-67
2021/07/05 11:34:23;;;;;;;;;;;;;;;;;;5108497;28;19923;-67
2021/07/05 11:36:50;;;;;;;;;;;;;;;;;;5107980;28;19931;-65
2021/07/05 11:39:17;;;;;;;;;;;;;;;;;;5110172;28;19934;-66
2021/07/05 11:41:44;;;;;;;;;;;;;;;;;;5101806;28;20394;-65
2021/07/05 11:44:13;;;;;;;;;;;;;;;;;;5103337;28;20027;-65
2021/07/05 11:46:40;;;;;;;;;;;;;;;;;;5106970;28;20018;-64
2021/07/05 11:49:08;;;;;;;;;;;;;;;;;;5101121;28;19924;-63
2021/07/05 11:51:36;;;;;;;;;;;;;;;;;;5106829;28;19935;-64
2021/07/05 11:54:03;;;;;;;;;;;;;;;;;;5104357;28;19923;-65
2021/07/05 11:56:30;;;;;;;;;;;;;;;;;;5097921;28;20405;-64
2021/07/05 11:58:57;;;;;;;;;;;;;;;;;;5101564;28;20383;-64
2021/07/05 12:01:24;;;;;;;;;;;;;;;;;;5107197;28;20283;-63
2021/07/05 12:03:51;;;;;;;;;;;;;;;;;;5107362;28;19928;-64
2021/07/05 12:06:18;;;;;;;;;;;;;;;;;;5101497;28;19985;-67
2021/07/05 12:08:45;;;;;;;;;;;;;;;;;;5103261;28;21684;-66
2021/07/05 12:11:12;;;;;;;;;;;;;;;;;;5103441;28;19930;-65
2021/07/05 12:13:39;;;;;;;;;;;;;;;;;;5103248;28;19924;-66
2021/07/05 12:16:07;;;;;;;;;;;;;;;;;;5098470;28;19924;-67
2021/07/05 12:18:34;;;;;;;;;;;;;;;;;;5101059;28;19936;-66
2021/07/05 12:21:01;;;;;;;;;;;;;;;;;;5097790;28;19931;-68
2021/07/05 12:23:28;;;;;;;;;;;;;;;;;;5103901;28;19923;-65
2021/07/05 12:25:55;;;;;;;;;;;;;;;;;;5100806;28;19931;-66
2021/07/05 12:28:22;;;;;;;;;;;;;;;;;;5105628;28;19942;-67
2021/07/05 12:30:50;;;;;;;;;;;;;;;;;;5103060;28;19938;-64
2021/07/05 12:33:17;;;;;;;;;;;;;;;;;;5106475;28;19924;-65
2021/07/05 12:35:44;;;;;;;;;;;;;;;;;;5105985;28;20294;-65
2021/07/05 12:38:11;;;;;;;;;;;;;;;;;;5105538;28;19923;-66
2021/07/05 12:40:38;;;;;;;;;;;;;;;;;;5104988;28;19935;-66
2021/07/05 12:43:08;;;;;;;;;;;;;;;;;;5103523;28;19931;-65
2021/07/05 12:45:35;;;;;;;;;;;;;;;;;;5101408;28;20001;-66
2021/07/05 12:48:02;;;;;;;;;;;;;;;;;;5100443;28;20007;-69
2021/07/05 12:50:29;;;;;;;;;;;;;;;;;;5104556;28;19931;-66
2021/07/05 12:52:56;;;;;;;;;;;;;;;;;;5105499;28;20007;-66
2021/07/05 12:55:23;;;;;;;;;;;;;;;;;;5101728;28;20018;-66
2021/07/05 12:57:50;;;;;;;;;;;;;;;;;;5105021;28;19935;-65
2021/07/05 13:00:17;;;;;;;;;;;;;;;;;;5099829;28;20413;-67
2021/07/05 13:02:44;;;;;;;;;;;;;;;;;;5093162;28;19936;-67
2021/07/05 13:05:11;;;;;;;;;;;;;;;;;;5094529;28;19932;-66
2021/07/05 13:07:38;;;;;;;;;;;;;;;;;;5097222;28;19931;-66
2021/07/05 13:10:05;;;;;;;;;;;;;;;;;;5100254;28;20293;-67
2021/07/05 13:12:32;;;;;;;;;;;;;;;;;;5103953;28;20007;-67
2021/07/05 13:14:59;;;;;;;;;;;;;;;;;;5102585;28;20364;-66
2021/07/05 13:17:26;;;;;;;;;;;;;;;;;;5102583;28;20371;-67
2021/07/05 13:19:53;;;;;;;;;;;;;;;;;;5100218;28;19927;-67
2021/07/05 13:22:21;;;;;;;;;;;;;;;;;;5098313;28;19934;-68
2021/07/05 13:24:48;;;;;;;;;;;;;;;;;;5100141;28;19955;-67
2021/07/05 13:27:15;;;;;;;;;;;;;;;;;;5100179;28;19924;-65
2021/07/05 13:29:41;;;;;;;;;;;;;;;;;;5100910;28;19924;-67
2021/07/05 13:32:08;;;;;;;;;;;;;;;;;;5103386;28;19923;-66
2021/07/05 13:34:36;;;;;;;;;;;;;;;;;;5102050;28;20375;-65
2021/07/05 13:37:03;;;;;;;;;;;;;;;;;;5098835;28;20277;-66
2021/07/05 13:39:30;;;;;;;;;;;;;;;;;;5105976;28;19924;-65
2021/07/05 13:41:57;;;;;;;;;;;;;;;;;;5101751;28;20394;-66
2021/07/05 13:44:24;;;;;;;;;;;;;;;;;;5101687;28;19924;-67
2021/07/05 13:46:51;;;;;;;;;;;;;;;;;;5097677;28;19972;-66
2021/07/05 13:49:18;;;;;;;;;;;;;;;;;;5105259;28;19924;-68
2021/07/05 13:51:46;;;;;;;;;;;;;;;;;;5104860;28;19971;-67
2021/07/05 13:54:13;;;;;;;;;;;;;;;;;;5103508;28;19924;-67
2021/07/05 13:56:40;;;;;;;;;;;;;;;;;;5097817;28;19932;-66
2021/07/05 13:59:07;;;;;;;;;;;;;;;;;;5096277;28;20407;-66
2021/07/05 14:01:34;;;;;;;;;;;;;;;;;;5096688;28;20034;-66
2021/07/05 14:04:03;;;;;;;;;;;;;;;;;;5098105;28;20177;-67
2021/07/05 14:06:30;;;;;;;;;;;;;;;;;;5102336;28;20375;-67
2021/07/05 14:08:56;;;;;;;;;;;;;;;;;;5101782;28;19949;-66
2021/07/05 14:11:23;;;;;;;;;;;;;;;;;;5100028;28;19924;-66
2021/07/05 14:13:52;;;;;;;;;;;;;;;;;;5097209;28;19935;-66
2021/07/05 14:16:19;;;;;;;;;;;;;;;;;;5101132;28;19924;-67
2021/07/05 14:18:46;;;;;;;;;;;;;;;;;;5099618;28;19930;-66
2021/07/05 14:21:13;;;;;;;;;;;;;;;;;;5098684;28;20014;-67
2021/07/05 14:23:40;;;;;;;;;;;;;;;;;;5101663;28;19931;-66
2021/07/05 14:26:07;;;;;;;;;;;;;;;;;;5095858;28;20463;-67
2021/07/05 14:28:35;;;;;;;;;;;;;;;;;;5096759;28;19930;-67
2021/07/05 14:31:02;;;;;;;;;;;;;;;;;;5101510;28;20014;-66
2021/07/05 14:33:29;;;;;;;;;;;;;;;;;;5101566;28;19931;-66
2021/07/05 14:35:58;;;;;;;;;;;;;;;;;;5097129;28;20409;-66
2021/07/05 14:38:25;;;;;;;;;;;;;;;;;;5107821;28;19928;-66
2021/07/05 14:40:52;;;;;;;;;;;;;;;;;;5104993;28;19932;-66
2021/07/05 14:43:19;;;;;;;;;;;;;;;;;;5102016;28;19931;-67
2021/07/05 14:45:46;;;;;;;;;;;;;;;;;;5104240;28;19923;-65
2021/07/05 14:48:13;;;;;;;;;;;;;;;;;;5106175;28;19934;-66
2021/07/05 14:50:40;;;;;;;;;;;;;;;;;;5097381;28;19927;-67
2021/07/05 14:53:07;;;;;;;;;;;;;;;;;;5099802;28;19924;-67
2021/07/05 14:55:34;;;;;;;;;;;;;;;;;;5099636;28;19938;-67
2021/07/05 14:58:01;;;;;;;;;;;;;;;;;;5105800;28;19928;-65
2021/07/05 15:00:28;;;;;;;;;;;;;;;;;;5102327;28;19971;-65
2021/07/05 15:02:55;;;;;;;;;;;;;;;;;;5098348;28;20384;-66
2021/07/05 15:05:22;;;;;;;;;;;;;;;;;;5099862;28;19928;-67
2021/07/05 15:07:49;;;;;;;;;;;;;;;;;;5104951;28;20408;-66
2021/07/05 15:10:16;;;;;;;;;;;;;;;;;;5104920;28;20314;-66
2021/07/05 15:12:44;;;;;;;;;;;;;;;;;;5106832;28;19939;-67
2021/07/05 15:15:11;;;;;;;;;;;;;;;;;;5105007;28;20219;-67
2021/07/05 15:17:38;;;;;;;;;;;;;;;;;;5106430;28;20337;-67
2021/07/05 15:20:05;;;;;;;;;;;;;;;;;;5106983;28;19924;-66
2021/07/05 15:22:31;;;;;;;;;;;;;;;;;;5109794;28;20019;-66
2021/07/05 15:24:58;;;;;;;;;;;;;;;;;;5110441;28;20325;-66
2021/07/05 15:27:25;;;;;;;;;;;;;;;;;;5108511;28;19924;-66
2021/07/05 15:29:52;;;;;;;;;;;;;;;;;;5107540;28;19971;-65
2021/07/05 15:32:19;;;;;;;;;;;;;;;;;;5108087;28;19924;-66
2021/07/05 15:34:47;;;;;;;;;;;;;;;;;;5106555;28;20310;-66
2021/07/05 15:37:14;;;;;;;;;;;;;;;;;;5105998;28;19947;-65
2021/07/05 15:39:40;;;;;;;;;;;;;;;;;;5104834;28;19924;-67
2021/07/05 15:42:07;;;;;;;;;;;;;;;;;;5105620;28;19930;-68
2021/07/05 15:44:34;;;;;;;;;;;;;;;;;;5104808;28;20291;-67
2021/07/05 15:47:01;;;;;;;;;;;;;;;;;;5106554;28;20010;-66
2021/07/05 15:49:28;;;;;;;;;;;;;;;;;;5104725;28;19930;-65
2021/07/05 15:51:55;;;;;;;;;;;;;;;;;;5105425;28;20379;-67
2021/07/05 15:54:22;;;;;;;;;;;;;;;;;;5104023;28;19931;-66
2021/07/05 15:56:49;;;;;;;;;;;;;;;;;;5103937;28;19930;-65
2021/07/05 15:59:16;;;;;;;;;;;;;;;;;;5101945;28;20437;-65
2021/07/05 16:01:43;;;;;;;;;;;;;;;;;;5102040;28;20018;-66
2021/07/05 16:04:10;;;;;;;;;;;;;;;;;;5104734;28;20413;-65
2021/07/05 16:06:37;;;;;;;;;;;;;;;;;;5100991;28;19932;-67
2021/07/05 16:09:04;;;;;;;;;;;;;;;;;;5104517;28;20034;-66
2021/07/05 16:11:31;;;;;;;;;;;;;;;;;;5107832;28;19932;-66
2021/07/05 16:13:58;;;;;;;;;;;;;;;;;;5103028;28;19934;-65
2021/07/05 16:16:25;;;;;;;;;;;;;;;;;;5106068;28;19978;-66
2021/07/05 16:18:52;;;;;;;;;;;;;;;;;;5105676;28;20011;-66
2021/07/05 16:21:19;;;;;;;;;;;;;;;;;;5102852;28;20011;-66
2021/07/05 16:23:46;;;;;;;;;;;;;;;;;;5099537;28;19923;-67
2021/07/05 16:26:13;;;;;;;;;;;;;;;;;;5102011;28;20405;-68
2021/07/05 16:28:40;;;;;;;;;;;;;;;;;;5101657;28;19930;-66
2021/07/05 16:31:07;;;;;;;;;;;;;;;;;;5101952;28;20018;-67
2021/07/05 16:33:36;;;;;;;;;;;;;;;;;;5104673;28;19923;-66
2021/07/05 16:36:03;;;;;;;;;;;;;;;;;;5102456;28;19971;-67
2021/07/05 16:38:30;;;;;;;;;;;;;;;;;;5103046;28;19929;-67
2021/07/05 16:40:58;;;;;;;;;;;;;;;;;;5103616;28;20277;-66
2021/07/05 16:43:25;;;;;;;;;;;;;;;;;;5103477;28;19927;-66
2021/07/05 16:45:52;;;;;;;;;;;;;;;;;;5103731;28;19942;-66
2021/07/05 16:48:19;;;;;;;;;;;;;;;;;;5103254;28;19924;-65